sensor_id;sensor_type;location;lat;lon;timestamp;temperature;humidity
28374;DHT22;15616;40.148;-102.718;2023-05-07T00:01:36;21.60;52.10
28374;DHT22;15616;40.148;-102.718;2023-05-07T00:04:02;21.60;52.10
28374;DHT22;15616;40.148;-102.718;2023-05-07T00:06:29;21.60;52.10
28374;DHT22;15616;40.148;-102.718;2023-05-07T00:08:55;21.60;52.20
28374;DHT22;15616;40.148;-102.718;2023-05-07T00:11:21;21.60;52.20
28374;DHT22;15616;40.148;-102.718;2023-05-07T00:13:47;21.60;52.20
28374;DHT22;15616;40.148;-102.718;2023-05-07T00:16:13;21.60;52.20
28374;DHT22;15616;40.148;-102.718;2023-05-07T00:18:39;21.60;52.20
28374;DHT22;15616;40.148;-102.718;2023-05-07T00:21:05;21.60;52.20
28374;DHT22;15616;40.148;-102.718;2023-05-07T00:23:30;21.60;52.20
28374;DHT22;15616;40.148;-102.718;2023-05-07T00:25:56;21.60;52.20
28374;DHT22;15616;40.148;-102.718;2023-05-07T00:28:22;21.60;52.20
28374;DHT22;15616;40.148;-102.718;2023-05-07T00:30:47;21.60;52.20
28374;DHT22;15616;40.148;-102.718;2023-05-07T00:33:13;21.60;52.20
28374;DHT22;15616;40.148;-102.718;2023-05-07T00:35:39;21.60;52.20
28374;DHT22;15616;40.148;-102.718;2023-05-07T00:38:04;21.60;52.20
28374;DHT22;15616;40.148;-102.718;2023-05-07T00:40:30;21.60;52.20
28374;DHT22;15616;40.148;-102.718;2023-05-07T00:42:56;21.60;52.20
28374;DHT22;15616;40.148;-102.718;2023-05-07T00:45:26;21.60;52.20
28374;DHT22;15616;40.148;-102.718;2023-05-07T00:47:57;21.60;52.30
28374;DHT22;15616;40.148;-102.718;2023-05-07T00:50:23;21.60;52.30
28374;DHT22;15616;40.148;-102.718;2023-05-07T00:52:48;21.50;52.20
28374;DHT22;15616;40.148;-102.718;2023-05-07T00:55:14;21.50;52.20
28374;DHT22;15616;40.148;-102.718;2023-05-07T00:57:41;21.50;52.30
28374;DHT22;15616;40.148;-102.718;2023-05-07T01:00:07;21.50;52.30
28374;DHT22;15616;40.148;-102.718;2023-05-07T01:02:34;21.50;52.30
28374;DHT22;15616;40.148;-102.718;2023-05-07T01:05:00;21.50;52.30
28374;DHT22;15616;40.148;-102.718;2023-05-07T01:07:26;21.50;52.30
28374;DHT22;15616;40.148;-102.718;2023-05-07T01:09:52;21.50;52.30
28374;DHT22;15616;40.148;-102.718;2023-05-07T01:12:19;21.50;52.30
28374;DHT22;15616;40.148;-102.718;2023-05-07T01:14:44;21.50;52.30
28374;DHT22;15616;40.148;-102.718;2023-05-07T01:17:10;21.50;52.40
28374;DHT22;15616;40.148;-102.718;2023-05-07T01:19:36;21.50;52.40
28374;DHT22;15616;40.148;-102.718;2023-05-07T01:22:07;21.50;52.40
28374;DHT22;15616;40.148;-102.718;2023-05-07T01:24:33;21.50;52.40
28374;DHT22;15616;40.148;-102.718;2023-05-07T01:26:59;21.50;52.50
28374;DHT22;15616;40.148;-102.718;2023-05-07T01:29:27;21.50;52.50
28374;DHT22;15616;40.148;-102.718;2023-05-07T01:31:52;21.50;52.50
28374;DHT22;15616;40.148;-102.718;2023-05-07T01:34:18;21.50;52.50
28374;DHT22;15616;40.148;-102.718;2023-05-07T01:36:44;21.50;52.50
28374;DHT22;15616;40.148;-102.718;2023-05-07T01:39:11;21.50;52.50
28374;DHT22;15616;40.148;-102.718;2023-05-07T01:41:37;21.50;52.50
28374;DHT22;15616;40.148;-102.718;2023-05-07T01:44:03;21.50;52.50
28374;DHT22;15616;40.148;-102.718;2023-05-07T01:46:31;21.50;52.50
28374;DHT22;15616;40.148;-102.718;2023-05-07T01:48:56;21.50;52.50
28374;DHT22;15616;40.148;-102.718;2023-05-07T01:51:22;21.40;52.50
28374;DHT22;15616;40.148;-102.718;2023-05-07T01:53:48;21.40;52.50
28374;DHT22;15616;40.148;-102.718;2023-05-07T01:56:19;21.50;52.50
28374;DHT22;15616;40.148;-102.718;2023-05-07T01:58:45;21.50;52.50
28374;DHT22;15616;40.148;-102.718;2023-05-07T02:01:12;21.50;52.50
28374;DHT22;15616;40.148;-102.718;2023-05-07T02:03:38;21.40;52.60
28374;DHT22;15616;40.148;-102.718;2023-05-07T02:06:03;21.50;52.60
28374;DHT22;15616;40.148;-102.718;2023-05-07T02:08:29;21.50;52.50
28374;DHT22;15616;40.148;-102.718;2023-05-07T02:10:55;21.40;52.50
28374;DHT22;15616;40.148;-102.718;2023-05-07T02:13:21;21.50;52.50
28374;DHT22;15616;40.148;-102.718;2023-05-07T02:15:48;21.40;52.50
28374;DHT22;15616;40.148;-102.718;2023-05-07T02:18:16;21.40;52.60
28374;DHT22;15616;40.148;-102.718;2023-05-07T02:20:42;21.40;52.60
28374;DHT22;15616;40.148;-102.718;2023-05-07T02:23:08;21.40;52.60
28374;DHT22;15616;40.148;-102.718;2023-05-07T02:25:33;21.40;52.60
28374;DHT22;15616;40.148;-102.718;2023-05-07T02:27:59;21.40;52.60
28374;DHT22;15616;40.148;-102.718;2023-05-07T02:30:25;21.40;52.70
28374;DHT22;15616;40.148;-102.718;2023-05-07T02:32:51;21.40;52.70
28374;DHT22;15616;40.148;-102.718;2023-05-07T02:35:16;21.40;52.70
28374;DHT22;15616;40.148;-102.718;2023-05-07T02:37:42;21.40;52.60
28374;DHT22;15616;40.148;-102.718;2023-05-07T02:40:08;21.40;52.70
28374;DHT22;15616;40.148;-102.718;2023-05-07T02:42:34;21.40;52.70
28374;DHT22;15616;40.148;-102.718;2023-05-07T02:45:00;21.40;52.70
28374;DHT22;15616;40.148;-102.718;2023-05-07T02:47:26;21.40;52.60
28374;DHT22;15616;40.148;-102.718;2023-05-07T02:49:54;21.40;52.70
28374;DHT22;15616;40.148;-102.718;2023-05-07T02:52:20;21.40;52.60
28374;DHT22;15616;40.148;-102.718;2023-05-07T02:54:46;21.40;52.60
28374;DHT22;15616;40.148;-102.718;2023-05-07T02:57:12;21.40;52.60
28374;DHT22;15616;40.148;-102.718;2023-05-07T02:59:37;21.40;52.60
28374;DHT22;15616;40.148;-102.718;2023-05-07T03:02:03;21.40;52.60
28374;DHT22;15616;40.148;-102.718;2023-05-07T03:04:29;21.50;52.70
28374;DHT22;15616;40.148;-102.718;2023-05-07T03:06:54;21.40;52.60
28374;DHT22;15616;40.148;-102.718;2023-05-07T03:09:20;21.40;52.70
28374;DHT22;15616;40.148;-102.718;2023-05-07T03:11:46;21.40;52.70
28374;DHT22;15616;40.148;-102.718;2023-05-07T03:14:12;21.40;52.70
28374;DHT22;15616;40.148;-102.718;2023-05-07T03:16:37;21.40;52.70
28374;DHT22;15616;40.148;-102.718;2023-05-07T03:19:03;21.40;52.70
28374;DHT22;15616;40.148;-102.718;2023-05-07T03:21:29;21.40;52.70
28374;DHT22;15616;40.148;-102.718;2023-05-07T03:23:56;21.40;52.70
28374;DHT22;15616;40.148;-102.718;2023-05-07T03:26:21;21.40;52.70
28374;DHT22;15616;40.148;-102.718;2023-05-07T03:28:47;21.40;52.80
28374;DHT22;15616;40.148;-102.718;2023-05-07T03:31:13;21.40;52.70
28374;DHT22;15616;40.148;-102.718;2023-05-07T03:33:48;21.40;52.70
28374;DHT22;15616;40.148;-102.718;2023-05-07T03:36:14;21.40;52.70
28374;DHT22;15616;40.148;-102.718;2023-05-07T03:38:40;21.40;52.70
28374;DHT22;15616;40.148;-102.718;2023-05-07T03:41:06;21.40;52.70
28374;DHT22;15616;40.148;-102.718;2023-05-07T03:43:31;21.40;52.70
28374;DHT22;15616;40.148;-102.718;2023-05-07T03:45:57;21.40;52.80
28374;DHT22;15616;40.148;-102.718;2023-05-07T03:48:23;21.40;52.80
28374;DHT22;15616;40.148;-102.718;2023-05-07T03:50:48;21.40;52.80
28374;DHT22;15616;40.148;-102.718;2023-05-07T03:53:14;21.40;52.80
28374;DHT22;15616;40.148;-102.718;2023-05-07T03:55:40;21.40;52.80
28374;DHT22;15616;40.148;-102.718;2023-05-07T03:58:06;21.40;52.80
28374;DHT22;15616;40.148;-102.718;2023-05-07T04:00:31;21.40;52.80
28374;DHT22;15616;40.148;-102.718;2023-05-07T04:03:04;21.40;52.80
28374;DHT22;15616;40.148;-102.718;2023-05-07T04:05:30;21.40;53.50
28374;DHT22;15616;40.148;-102.718;2023-05-07T04:07:57;21.40;52.90
28374;DHT22;15616;40.148;-102.718;2023-05-07T04:10:23;21.40;52.90
28374;DHT22;15616;40.148;-102.718;2023-05-07T04:12:49;21.40;52.90
28374;DHT22;15616;40.148;-102.718;2023-05-07T04:15:15;21.30;52.80
28374;DHT22;15616;40.148;-102.718;2023-05-07T04:17:40;21.40;52.80
28374;DHT22;15616;40.148;-102.718;2023-05-07T04:20:08;21.40;52.80
28374;DHT22;15616;40.148;-102.718;2023-05-07T04:22:34;21.40;52.80
28374;DHT22;15616;40.148;-102.718;2023-05-07T04:25:00;21.30;52.90
28374;DHT22;15616;40.148;-102.718;2023-05-07T04:27:25;21.30;52.90
28374;DHT22;15616;40.148;-102.718;2023-05-07T04:29:51;21.30;52.90
28374;DHT22;15616;40.148;-102.718;2023-05-07T04:32:21;21.30;52.90
28374;DHT22;15616;40.148;-102.718;2023-05-07T04:34:47;21.30;52.90
28374;DHT22;15616;40.148;-102.718;2023-05-07T04:37:12;21.40;52.90
28374;DHT22;15616;40.148;-102.718;2023-05-07T04:39:38;21.30;52.90
28374;DHT22;15616;40.148;-102.718;2023-05-07T04:42:04;21.30;52.90
28374;DHT22;15616;40.148;-102.718;2023-05-07T04:44:29;21.30;52.90
28374;DHT22;15616;40.148;-102.718;2023-05-07T04:46:56;21.30;52.90
28374;DHT22;15616;40.148;-102.718;2023-05-07T04:49:22;21.40;53.00
28374;DHT22;15616;40.148;-102.718;2023-05-07T04:51:47;21.30;53.00
28374;DHT22;15616;40.148;-102.718;2023-05-07T04:54:13;21.30;53.00
28374;DHT22;15616;40.148;-102.718;2023-05-07T04:56:39;21.30;53.00
28374;DHT22;15616;40.148;-102.718;2023-05-07T04:59:04;21.30;52.90
28374;DHT22;15616;40.148;-102.718;2023-05-07T05:01:31;21.40;53.00
28374;DHT22;15616;40.148;-102.718;2023-05-07T05:03:56;21.30;53.00
28374;DHT22;15616;40.148;-102.718;2023-05-07T05:06:22;21.30;52.90
28374;DHT22;15616;40.148;-102.718;2023-05-07T05:08:48;21.30;52.90
28374;DHT22;15616;40.148;-102.718;2023-05-07T05:11:13;21.30;52.90
28374;DHT22;15616;40.148;-102.718;2023-05-07T05:13:40;21.30;52.90
28374;DHT22;15616;40.148;-102.718;2023-05-07T05:16:06;21.30;52.90
28374;DHT22;15616;40.148;-102.718;2023-05-07T05:18:32;21.40;53.00
28374;DHT22;15616;40.148;-102.718;2023-05-07T05:20:57;21.30;52.90
28374;DHT22;15616;40.148;-102.718;2023-05-07T05:23:23;21.30;52.90
28374;DHT22;15616;40.148;-102.718;2023-05-07T05:25:49;21.30;52.90
28374;DHT22;15616;40.148;-102.718;2023-05-07T05:28:15;21.30;52.90
28374;DHT22;15616;40.148;-102.718;2023-05-07T05:30:40;21.30;52.80
28374;DHT22;15616;40.148;-102.718;2023-05-07T05:33:06;21.30;52.80
28374;DHT22;15616;40.148;-102.718;2023-05-07T05:35:32;21.30;52.80
28374;DHT22;15616;40.148;-102.718;2023-05-07T05:37:57;21.30;52.80
28374;DHT22;15616;40.148;-102.718;2023-05-07T05:40:23;21.30;52.90
28374;DHT22;15616;40.148;-102.718;2023-05-07T05:42:49;21.30;52.90
28374;DHT22;15616;40.148;-102.718;2023-05-07T05:45:14;21.30;52.90
28374;DHT22;15616;40.148;-102.718;2023-05-07T05:47:40;21.30;52.90
28374;DHT22;15616;40.148;-102.718;2023-05-07T05:50:06;21.30;52.90
28374;DHT22;15616;40.148;-102.718;2023-05-07T05:52:32;21.30;53.00
28374;DHT22;15616;40.148;-102.718;2023-05-07T05:54:58;21.30;53.00
28374;DHT22;15616;40.148;-102.718;2023-05-07T05:57:23;21.30;53.00
28374;DHT22;15616;40.148;-102.718;2023-05-07T05:59:49;21.30;53.00
28374;DHT22;15616;40.148;-102.718;2023-05-07T06:02:15;21.30;53.00
28374;DHT22;15616;40.148;-102.718;2023-05-07T06:04:40;21.30;52.90
28374;DHT22;15616;40.148;-102.718;2023-05-07T06:07:07;21.30;52.90
28374;DHT22;15616;40.148;-102.718;2023-05-07T06:09:33;21.30;53.00
28374;DHT22;15616;40.148;-102.718;2023-05-07T06:11:59;21.30;53.00
28374;DHT22;15616;40.148;-102.718;2023-05-07T06:14:25;21.30;53.00
28374;DHT22;15616;40.148;-102.718;2023-05-07T06:16:50;21.30;53.00
28374;DHT22;15616;40.148;-102.718;2023-05-07T06:19:16;21.30;53.00
28374;DHT22;15616;40.148;-102.718;2023-05-07T06:21:43;21.30;53.00
28374;DHT22;15616;40.148;-102.718;2023-05-07T06:24:09;21.40;53.00
28374;DHT22;15616;40.148;-102.718;2023-05-07T06:26:35;21.30;53.00
28374;DHT22;15616;40.148;-102.718;2023-05-07T06:29:01;21.30;53.00
28374;DHT22;15616;40.148;-102.718;2023-05-07T06:31:29;21.30;53.10
28374;DHT22;15616;40.148;-102.718;2023-05-07T06:33:55;21.40;53.20
28374;DHT22;15616;40.148;-102.718;2023-05-07T06:36:20;21.30;53.10
28374;DHT22;15616;40.148;-102.718;2023-05-07T06:38:46;21.30;53.00
28374;DHT22;15616;40.148;-102.718;2023-05-07T06:41:12;21.30;53.10
28374;DHT22;15616;40.148;-102.718;2023-05-07T06:43:37;21.30;53.10
28374;DHT22;15616;40.148;-102.718;2023-05-07T06:46:03;21.30;53.10
28374;DHT22;15616;40.148;-102.718;2023-05-07T06:48:29;21.30;53.10
28374;DHT22;15616;40.148;-102.718;2023-05-07T06:50:54;21.40;53.10
28374;DHT22;15616;40.148;-102.718;2023-05-07T06:53:21;21.30;53.00
28374;DHT22;15616;40.148;-102.718;2023-05-07T06:55:46;21.30;53.10
28374;DHT22;15616;40.148;-102.718;2023-05-07T06:58:12;21.30;53.10
28374;DHT22;15616;40.148;-102.718;2023-05-07T07:00:38;21.30;53.10
28374;DHT22;15616;40.148;-102.718;2023-05-07T07:03:04;21.30;53.00
28374;DHT22;15616;40.148;-102.718;2023-05-07T07:05:29;21.30;53.00
28374;DHT22;15616;40.148;-102.718;2023-05-07T07:07:55;21.30;53.00
28374;DHT22;15616;40.148;-102.718;2023-05-07T07:10:21;21.30;53.10
28374;DHT22;15616;40.148;-102.718;2023-05-07T07:12:47;21.30;53.10
28374;DHT22;15616;40.148;-102.718;2023-05-07T07:15:13;21.30;53.10
28374;DHT22;15616;40.148;-102.718;2023-05-07T07:17:39;21.30;53.10
28374;DHT22;15616;40.148;-102.718;2023-05-07T07:20:05;21.30;53.10
28374;DHT22;15616;40.148;-102.718;2023-05-07T07:22:31;21.30;53.10
28374;DHT22;15616;40.148;-102.718;2023-05-07T07:24:56;21.30;53.00
28374;DHT22;15616;40.148;-102.718;2023-05-07T07:27:22;21.30;53.70
28374;DHT22;15616;40.148;-102.718;2023-05-07T07:29:48;21.30;53.00
28374;DHT22;15616;40.148;-102.718;2023-05-07T07:32:13;21.30;53.00
28374;DHT22;15616;40.148;-102.718;2023-05-07T07:34:39;21.30;53.70
28374;DHT22;15616;40.148;-102.718;2023-05-07T07:37:05;21.30;53.00
28374;DHT22;15616;40.148;-102.718;2023-05-07T07:39:32;21.40;53.00
28374;DHT22;15616;40.148;-102.718;2023-05-07T07:41:57;21.30;53.00
28374;DHT22;15616;40.148;-102.718;2023-05-07T07:44:23;21.30;53.10
28374;DHT22;15616;40.148;-102.718;2023-05-07T07:46:49;21.30;53.10
28374;DHT22;15616;40.148;-102.718;2023-05-07T07:49:16;21.30;53.00
28374;DHT22;15616;40.148;-102.718;2023-05-07T07:51:41;21.30;53.00
28374;DHT22;15616;40.148;-102.718;2023-05-07T07:54:07;21.30;53.00
28374;DHT22;15616;40.148;-102.718;2023-05-07T07:56:33;21.30;53.00
28374;DHT22;15616;40.148;-102.718;2023-05-07T07:58:59;21.30;53.00
28374;DHT22;15616;40.148;-102.718;2023-05-07T08:01:25;21.30;53.00
28374;DHT22;15616;40.148;-102.718;2023-05-07T08:03:51;21.40;53.10
28374;DHT22;15616;40.148;-102.718;2023-05-07T08:06:17;21.30;53.00
28374;DHT22;15616;40.148;-102.718;2023-05-07T08:08:43;21.40;53.00
28374;DHT22;15616;40.148;-102.718;2023-05-07T08:11:09;21.40;53.10
28374;DHT22;15616;40.148;-102.718;2023-05-07T08:13:35;21.40;53.10
28374;DHT22;15616;40.148;-102.718;2023-05-07T08:16:01;21.40;53.00
28374;DHT22;15616;40.148;-102.718;2023-05-07T08:18:27;21.40;53.10
28374;DHT22;15616;40.148;-102.718;2023-05-07T08:20:54;21.40;53.10
28374;DHT22;15616;40.148;-102.718;2023-05-07T08:23:20;21.40;53.10
28374;DHT22;15616;40.148;-102.718;2023-05-07T08:25:46;21.40;53.10
28374;DHT22;15616;40.148;-102.718;2023-05-07T08:28:12;21.40;53.20
28374;DHT22;15616;40.148;-102.718;2023-05-07T08:30:37;21.40;53.20
28374;DHT22;15616;40.148;-102.718;2023-05-07T08:33:03;21.40;53.20
28374;DHT22;15616;40.148;-102.718;2023-05-07T08:35:29;21.40;53.30
28374;DHT22;15616;40.148;-102.718;2023-05-07T08:37:55;21.40;53.30
28374;DHT22;15616;40.148;-102.718;2023-05-07T08:40:22;21.40;53.30
28374;DHT22;15616;40.148;-102.718;2023-05-07T08:42:50;21.40;53.30
28374;DHT22;15616;40.148;-102.718;2023-05-07T08:45:17;21.40;53.30
28374;DHT22;15616;40.148;-102.718;2023-05-07T08:47:44;21.40;53.30
28374;DHT22;15616;40.148;-102.718;2023-05-07T08:50:11;21.40;53.30
28374;DHT22;15616;40.148;-102.718;2023-05-07T08:52:37;21.40;53.30
28374;DHT22;15616;40.148;-102.718;2023-05-07T08:55:04;21.50;53.40
28374;DHT22;15616;40.148;-102.718;2023-05-07T08:57:30;21.50;53.40
28374;DHT22;15616;40.148;-102.718;2023-05-07T08:59:56;21.50;53.40
28374;DHT22;15616;40.148;-102.718;2023-05-07T09:02:21;21.40;53.50
28374;DHT22;15616;40.148;-102.718;2023-05-07T09:04:47;21.40;53.40
28374;DHT22;15616;40.148;-102.718;2023-05-07T09:07:13;21.50;53.60
28374;DHT22;15616;40.148;-102.718;2023-05-07T09:09:38;21.40;53.50
28374;DHT22;15616;40.148;-102.718;2023-05-07T09:12:04;21.40;53.60
28374;DHT22;15616;40.148;-102.718;2023-05-07T09:14:30;21.50;53.60
28374;DHT22;15616;40.148;-102.718;2023-05-07T09:16:56;21.50;53.60
28374;DHT22;15616;40.148;-102.718;2023-05-07T09:19:25;21.50;53.60
28374;DHT22;15616;40.148;-102.718;2023-05-07T09:21:58;21.50;53.60
28374;DHT22;15616;40.148;-102.718;2023-05-07T09:24:24;21.40;53.60
28374;DHT22;15616;40.148;-102.718;2023-05-07T09:26:50;21.40;53.60
28374;DHT22;15616;40.148;-102.718;2023-05-07T09:29:15;21.40;53.60
28374;DHT22;15616;40.148;-102.718;2023-05-07T09:31:42;21.50;53.70
28374;DHT22;15616;40.148;-102.718;2023-05-07T09:34:08;21.50;53.70
28374;DHT22;15616;40.148;-102.718;2023-05-07T09:36:34;21.40;53.70
28374;DHT22;15616;40.148;-102.718;2023-05-07T09:39:00;21.50;53.70
28374;DHT22;15616;40.148;-102.718;2023-05-07T09:41:26;21.40;53.70
28374;DHT22;15616;40.148;-102.718;2023-05-07T09:43:54;21.50;53.70
28374;DHT22;15616;40.148;-102.718;2023-05-07T09:46:20;21.50;53.70
28374;DHT22;15616;40.148;-102.718;2023-05-07T09:48:49;21.50;53.70
28374;DHT22;15616;40.148;-102.718;2023-05-07T09:53:57;21.50;53.70
28374;DHT22;15616;40.148;-102.718;2023-05-07T09:56:23;21.50;53.60
28374;DHT22;15616;40.148;-102.718;2023-05-07T09:58:49;21.50;53.60
28374;DHT22;15616;40.148;-102.718;2023-05-07T10:01:18;21.50;53.60
28374;DHT22;15616;40.148;-102.718;2023-05-07T10:03:47;21.60;53.70
28374;DHT22;15616;40.148;-102.718;2023-05-07T10:06:13;21.60;53.70
28374;DHT22;15616;40.148;-102.718;2023-05-07T10:08:40;21.60;53.70
28374;DHT22;15616;40.148;-102.718;2023-05-07T10:11:05;21.60;53.70
28374;DHT22;15616;40.148;-102.718;2023-05-07T10:13:34;21.60;53.70
28374;DHT22;15616;40.148;-102.718;2023-05-07T10:16:01;21.60;53.70
28374;DHT22;15616;40.148;-102.718;2023-05-07T10:18:28;21.60;53.70
28374;DHT22;15616;40.148;-102.718;2023-05-07T10:21:16;21.60;53.70
28374;DHT22;15616;40.148;-102.718;2023-05-07T10:23:44;21.60;53.70
28374;DHT22;15616;40.148;-102.718;2023-05-07T10:26:10;21.60;53.70
28374;DHT22;15616;40.148;-102.718;2023-05-07T10:28:38;21.50;53.70
28374;DHT22;15616;40.148;-102.718;2023-05-07T10:33:31;21.60;53.80
28374;DHT22;15616;40.148;-102.718;2023-05-07T10:35:58;21.60;53.80
28374;DHT22;15616;40.148;-102.718;2023-05-07T10:38:24;21.60;53.80
28374;DHT22;15616;40.148;-102.718;2023-05-07T10:40:51;21.60;53.80
28374;DHT22;15616;40.148;-102.718;2023-05-07T10:43:16;21.60;53.80
28374;DHT22;15616;40.148;-102.718;2023-05-07T10:45:42;21.60;53.90
28374;DHT22;15616;40.148;-102.718;2023-05-07T10:48:14;21.60;53.80
28374;DHT22;15616;40.148;-102.718;2023-05-07T10:50:41;21.60;53.80
28374;DHT22;15616;40.148;-102.718;2023-05-07T10:55:47;21.60;53.70
28374;DHT22;15616;40.148;-102.718;2023-05-07T10:58:29;21.60;53.70
28374;DHT22;15616;40.148;-102.718;2023-05-07T11:00:58;21.70;53.70
28374;DHT22;15616;40.148;-102.718;2023-05-07T11:03:25;21.70;53.70
28374;DHT22;15616;40.148;-102.718;2023-05-07T11:17:24;21.70;53.60
28374;DHT22;15616;40.148;-102.718;2023-05-07T11:19:50;21.70;53.50
28374;DHT22;15616;40.148;-102.718;2023-05-07T11:24:59;21.80;53.50
28374;DHT22;15616;40.148;-102.718;2023-05-07T11:27:25;21.80;53.40
28374;DHT22;15616;40.148;-102.718;2023-05-07T11:29:51;21.80;53.30
28374;DHT22;15616;40.148;-102.718;2023-05-07T11:32:23;21.80;53.30
28374;DHT22;15616;40.148;-102.718;2023-05-07T11:34:52;21.80;53.20
28374;DHT22;15616;40.148;-102.718;2023-05-07T11:37:18;21.80;53.10
28374;DHT22;15616;40.148;-102.718;2023-05-07T11:39:44;21.80;53.10
28374;DHT22;15616;40.148;-102.718;2023-05-07T11:42:27;21.80;53.10
28374;DHT22;15616;40.148;-102.718;2023-05-07T11:44:53;21.80;53.00
28374;DHT22;15616;40.148;-102.718;2023-05-07T11:47:19;21.80;53.00
28374;DHT22;15616;40.148;-102.718;2023-05-07T11:49:54;21.80;52.90
28374;DHT22;15616;40.148;-102.718;2023-05-07T11:52:21;21.90;52.90
28374;DHT22;15616;40.148;-102.718;2023-05-07T11:54:50;21.90;52.90
28374;DHT22;15616;40.148;-102.718;2023-05-07T11:57:16;21.90;52.90
28374;DHT22;15616;40.148;-102.718;2023-05-07T11:59:42;21.90;52.80
28374;DHT22;15616;40.148;-102.718;2023-05-07T12:02:16;21.90;52.80
28374;DHT22;15616;40.148;-102.718;2023-05-07T12:04:42;21.90;52.80
28374;DHT22;15616;40.148;-102.718;2023-05-07T12:07:14;21.90;52.70
28374;DHT22;15616;40.148;-102.718;2023-05-07T12:09:42;21.90;52.70
28374;DHT22;15616;40.148;-102.718;2023-05-07T12:12:09;21.90;52.70
28374;DHT22;15616;40.148;-102.718;2023-05-07T12:14:44;21.90;52.70
28374;DHT22;15616;40.148;-102.718;2023-05-07T12:17:10;21.90;52.70
28374;DHT22;15616;40.148;-102.718;2023-05-07T12:19:37;21.90;52.70
28374;DHT22;15616;40.148;-102.718;2023-05-07T12:22:03;21.90;52.70
28374;DHT22;15616;40.148;-102.718;2023-05-07T12:24:30;21.90;52.60
28374;DHT22;15616;40.148;-102.718;2023-05-07T12:27:07;21.90;52.50
28374;DHT22;15616;40.148;-102.718;2023-05-07T12:29:32;21.90;52.50
28374;DHT22;15616;40.148;-102.718;2023-05-07T12:31:58;21.90;52.50
28374;DHT22;15616;40.148;-102.718;2023-05-07T12:34:24;21.90;52.50
28374;DHT22;15616;40.148;-102.718;2023-05-07T12:36:50;21.90;52.50
28374;DHT22;15616;40.148;-102.718;2023-05-07T12:39:15;21.90;52.50
28374;DHT22;15616;40.148;-102.718;2023-05-07T12:41:54;21.90;52.50
28374;DHT22;15616;40.148;-102.718;2023-05-07T12:44:23;21.90;52.50
28374;DHT22;15616;40.148;-102.718;2023-05-07T12:46:49;21.90;52.50
28374;DHT22;15616;40.148;-102.718;2023-05-07T12:49:15;22.00;52.50
28374;DHT22;15616;40.148;-102.718;2023-05-07T12:51:41;22.00;52.50
28374;DHT22;15616;40.148;-102.718;2023-05-07T12:54:07;22.00;52.40
28374;DHT22;15616;40.148;-102.718;2023-05-07T12:56:35;22.00;52.40
28374;DHT22;15616;40.148;-102.718;2023-05-07T12:59:01;21.90;52.30
28374;DHT22;15616;40.148;-102.718;2023-05-07T13:01:30;22.00;52.40
28374;DHT22;15616;40.148;-102.718;2023-05-07T13:04:02;22.00;52.30
28374;DHT22;15616;40.148;-102.718;2023-05-07T13:06:29;22.00;52.40
28374;DHT22;15616;40.148;-102.718;2023-05-07T13:08:55;22.00;52.30
28374;DHT22;15616;40.148;-102.718;2023-05-07T13:11:21;22.00;52.30
28374;DHT22;15616;40.148;-102.718;2023-05-07T13:13:48;22.00;52.30
28374;DHT22;15616;40.148;-102.718;2023-05-07T13:16:13;22.00;52.30
28374;DHT22;15616;40.148;-102.718;2023-05-07T13:18:39;22.00;52.30
28374;DHT22;15616;40.148;-102.718;2023-05-07T13:21:05;22.00;52.20
28374;DHT22;15616;40.148;-102.718;2023-05-07T13:23:31;22.00;52.30
28374;DHT22;15616;40.148;-102.718;2023-05-07T13:25:56;22.00;52.30
28374;DHT22;15616;40.148;-102.718;2023-05-07T13:28:22;22.00;52.20
28374;DHT22;15616;40.148;-102.718;2023-05-07T13:30:48;22.00;52.30
28374;DHT22;15616;40.148;-102.718;2023-05-07T13:33:14;22.00;52.30
28374;DHT22;15616;40.148;-102.718;2023-05-07T13:35:41;22.00;52.30
28374;DHT22;15616;40.148;-102.718;2023-05-07T13:38:07;22.00;52.20
28374;DHT22;15616;40.148;-102.718;2023-05-07T13:40:33;22.00;52.30
28374;DHT22;15616;40.148;-102.718;2023-05-07T13:42:59;22.00;52.20
28374;DHT22;15616;40.148;-102.718;2023-05-07T13:45:27;22.00;52.20
28374;DHT22;15616;40.148;-102.718;2023-05-07T13:47:55;22.00;52.20
28374;DHT22;15616;40.148;-102.718;2023-05-07T13:50:21;22.00;52.20
28374;DHT22;15616;40.148;-102.718;2023-05-07T13:52:46;22.00;52.20
28374;DHT22;15616;40.148;-102.718;2023-05-07T13:55:16;22.00;52.20
28374;DHT22;15616;40.148;-102.718;2023-05-07T13:57:43;22.00;52.20
28374;DHT22;15616;40.148;-102.718;2023-05-07T14:00:09;22.00;52.20
28374;DHT22;15616;40.148;-102.718;2023-05-07T14:02:34;22.00;52.10
28374;DHT22;15616;40.148;-102.718;2023-05-07T14:05:00;22.00;52.10
28374;DHT22;15616;40.148;-102.718;2023-05-07T14:07:26;22.00;52.10
28374;DHT22;15616;40.148;-102.718;2023-05-07T14:09:52;22.10;52.10
28374;DHT22;15616;40.148;-102.718;2023-05-07T14:12:17;22.10;52.10
28374;DHT22;15616;40.148;-102.718;2023-05-07T14:14:43;22.10;52.10
28374;DHT22;15616;40.148;-102.718;2023-05-07T14:17:10;22.10;52.10
28374;DHT22;15616;40.148;-102.718;2023-05-07T14:19:36;22.10;52.10
28374;DHT22;15616;40.148;-102.718;2023-05-07T14:22:02;22.10;52.10
28374;DHT22;15616;40.148;-102.718;2023-05-07T14:24:27;22.10;52.00
28374;DHT22;15616;40.148;-102.718;2023-05-07T14:26:53;22.10;52.00
28374;DHT22;15616;40.148;-102.718;2023-05-07T14:29:19;22.10;52.00
28374;DHT22;15616;40.148;-102.718;2023-05-07T14:31:45;22.10;52.00
28374;DHT22;15616;40.148;-102.718;2023-05-07T14:34:11;22.10;51.90
28374;DHT22;15616;40.148;-102.718;2023-05-07T14:36:36;22.10;52.00
28374;DHT22;15616;40.148;-102.718;2023-05-07T14:39:03;22.20;52.00
28374;DHT22;15616;40.148;-102.718;2023-05-07T14:41:29;22.10;51.90
28374;DHT22;15616;40.148;-102.718;2023-05-07T14:43:55;22.20;52.00
28374;DHT22;15616;40.148;-102.718;2023-05-07T14:46:21;22.10;51.90
28374;DHT22;15616;40.148;-102.718;2023-05-07T14:48:46;22.10;51.90
28374;DHT22;15616;40.148;-102.718;2023-05-07T14:51:12;22.20;51.90
28374;DHT22;15616;40.148;-102.718;2023-05-07T14:53:38;22.20;51.90
28374;DHT22;15616;40.148;-102.718;2023-05-07T14:56:04;22.20;51.90
28374;DHT22;15616;40.148;-102.718;2023-05-07T14:58:31;22.10;51.90
28374;DHT22;15616;40.148;-102.718;2023-05-07T15:00:56;22.20;51.90
28374;DHT22;15616;40.148;-102.718;2023-05-07T15:03:22;22.20;51.90
28374;DHT22;15616;40.148;-102.718;2023-05-07T15:05:48;22.20;51.90